createdAt,value
2022-08-16T00:00:20.417Z,360
2022-08-16T00:01:07.487Z,359
2022-08-16T00:02:12.954Z,372
2022-08-16T00:03:07.413Z,380
2022-08-16T00:04:07.333Z,386
2022-08-16T00:05:07.301Z,385
2022-08-16T00:06:07.539Z,388
2022-08-16T00:07:07.421Z,379
2022-08-16T00:08:07.101Z,369
2022-08-16T00:09:07.380Z,351
2022-08-16T00:10:07.301Z,349
2022-08-16T00:11:07.240Z,369
2022-08-16T00:12:07.362Z,365
2022-08-16T00:13:07.310Z,361
2022-08-16T00:14:08.586Z,367
2022-08-16T00:15:11.650Z,362
2022-08-16T00:17:05.646Z,373
2022-08-16T00:17:16.285Z,372
2022-08-16T00:18:06.689Z,378
2022-08-16T00:19:07.465Z,379
2022-08-16T00:20:07.441Z,380
2022-08-16T00:22:13.324Z,372
2022-08-16T00:23:07.225Z,368
2022-08-16T00:24:11.500Z,358
2022-08-16T00:25:07.270Z,361
2022-08-16T00:26:35.446Z,363
2022-08-16T00:27:06.918Z,369
2022-08-16T00:28:06.760Z,355
2022-08-16T00:29:06.996Z,370
2022-08-16T00:31:07.232Z,372
2022-08-16T00:32:07.575Z,377
2022-08-16T00:33:08.299Z,373
2022-08-16T00:34:07.559Z,366
2022-08-16T00:35:15.244Z,372
2022-08-16T00:37:07.202Z,369
2022-08-16T00:38:41.092Z,357
2022-08-16T00:39:07.306Z,352
2022-08-16T00:40:07.196Z,361
2022-08-16T00:41:07.768Z,364
2022-08-16T00:42:10.135Z,388
2022-08-16T00:43:11.810Z,384
2022-08-16T00:44:07.233Z,379
2022-08-16T00:45:08.513Z,374
2022-08-16T00:46:33.078Z,366
2022-08-16T00:47:07.553Z,369
2022-08-16T00:48:31.328Z,370
2022-08-16T00:49:07.370Z,374
2022-08-16T00:50:11.506Z,382
2022-08-16T00:51:07.218Z,379
2022-08-16T00:52:30.137Z,361
2022-08-16T00:53:07.582Z,357
2022-08-16T00:54:07.064Z,361
2022-08-16T00:55:08.351Z,342
2022-08-16T00:56:07.189Z,399
2022-08-16T00:57:07.051Z,373
2022-08-16T00:58:13.080Z,362
2022-08-16T01:00:08.207Z,364
2022-08-16T01:01:08.500Z,367
2022-08-16T01:02:30.779Z,362
2022-08-16T01:03:07.376Z,359
2022-08-16T01:04:07.201Z,372
2022-08-16T01:05:10.608Z,374
2022-08-16T01:06:40.219Z,368
2022-08-16T01:07:07.132Z,362
2022-08-16T01:09:06.981Z,340
2022-08-16T01:10:16.455Z,398
2022-08-16T01:11:07.045Z,362
2022-08-16T01:12:08.482Z,359
2022-08-16T01:13:07.992Z,358
2022-08-16T01:15:07.751Z,372
2022-08-16T01:16:10.287Z,368
2022-08-16T01:17:07.013Z,376
2022-08-16T01:18:07.428Z,374
2022-08-16T01:19:07.086Z,373
2022-08-16T01:20:23.484Z,367
2022-08-16T01:21:07.377Z,356
2022-08-16T01:22:48.425Z,361
2022-08-16T01:23:08.762Z,346
2022-08-16T01:24:44.402Z,395
2022-08-16T01:25:07.507Z,362
2022-08-16T01:26:35.394Z,364
2022-08-16T01:27:07.075Z,373
2022-08-16T01:28:06.976Z,372
2022-08-16T01:29:06.873Z,370
2022-08-16T01:30:20.072Z,367
2022-08-16T01:31:07.209Z,368
2022-08-16T01:32:07.348Z,370
2022-08-16T01:33:14.642Z,376
2022-08-16T01:34:07.262Z,379
2022-08-16T01:35:07.196Z,371
2022-08-16T01:36:09.405Z,370
2022-08-16T01:38:07.049Z,376
2022-08-16T01:39:07.703Z,359
2022-08-16T01:40:07.621Z,367
2022-08-16T01:41:07.372Z,355
2022-08-16T01:42:12.166Z,353
2022-08-16T01:43:09.512Z,367
2022-08-16T01:44:06.829Z,378
2022-08-16T01:45:07.087Z,373
2022-08-16T01:46:37.748Z,364
2022-08-16T01:47:07.007Z,368
2022-08-16T01:48:19.639Z,379
2022-08-16T01:49:07.377Z,375
2022-08-16T01:50:42.711Z,362
2022-08-16T01:51:16.758Z,363
2022-08-16T01:52:07.343Z,385
2022-08-16T01:53:07.522Z,362
2022-08-16T01:54:07.507Z,364
2022-08-16T01:55:07.173Z,371
2022-08-16T01:56:06.882Z,373
2022-08-16T01:57:07.288Z,376
2022-08-16T01:58:07.154Z,378
2022-08-16T01:59:07.071Z,386
2022-08-16T02:00:10.434Z,388
2022-08-16T02:01:08.180Z,387
2022-08-16T02:02:26.675Z,361
2022-08-16T02:03:07.447Z,365
2022-08-16T02:04:10.895Z,373
2022-08-16T02:05:07.529Z,372
2022-08-16T02:06:08.002Z,367
2022-08-16T02:07:07.408Z,378
2022-08-16T02:08:07.287Z,368
2022-08-16T02:09:07.262Z,367
2022-08-16T02:10:07.007Z,370
2022-08-16T02:11:07.306Z,371
2022-08-16T02:12:50.188Z,378
2022-08-16T02:13:07.774Z,362
2022-08-16T02:15:07.110Z,371
2022-08-16T02:16:07.311Z,365
2022-08-16T02:17:06.909Z,364
2022-08-16T02:18:07.556Z,365
2022-08-16T02:19:16.138Z,367
2022-08-16T02:20:11.366Z,363
2022-08-16T02:21:07.497Z,378
2022-08-16T02:22:08.862Z,336
2022-08-16T02:23:07.647Z,348
2022-08-16T02:24:32.024Z,355
2022-08-16T02:25:06.974Z,359
2022-08-16T02:26:07.590Z,356
2022-08-16T02:27:07.063Z,362
2022-08-16T02:29:07.119Z,372
2022-08-16T02:30:07.936Z,362
2022-08-16T02:31:07.102Z,352
2022-08-16T02:32:49.850Z,357
2022-08-16T02:33:09.886Z,363
2022-08-16T02:34:07.657Z,357
2022-08-16T02:35:06.875Z,362
2022-08-16T02:36:07.099Z,367
2022-08-16T02:37:07.601Z,371
2022-08-16T02:38:08.814Z,370
2022-08-16T02:39:07.583Z,366
2022-08-16T02:40:07.881Z,359
2022-08-16T02:41:09.663Z,367
2022-08-16T02:42:06.907Z,362
2022-08-16T02:43:07.244Z,355
2022-08-16T02:44:07.318Z,365
2022-08-16T02:45:07.487Z,369
2022-08-16T02:46:07.559Z,362
2022-08-16T02:47:07.268Z,365
2022-08-16T02:48:30.583Z,369
2022-08-16T02:49:07.151Z,370
2022-08-16T02:50:54.953Z,369
2022-08-16T02:51:10.811Z,367
2022-08-16T02:52:09.111Z,377
2022-08-16T02:53:06.852Z,379
2022-08-16T02:54:08.343Z,378
2022-08-16T02:55:07.450Z,380
2022-08-16T02:56:09.845Z,377
2022-08-16T02:57:07.248Z,380
2022-08-16T02:58:07.454Z,367
2022-08-16T02:59:11.371Z,368
2022-08-16T03:00:34.594Z,364
2022-08-16T03:02:08.072Z,379
2022-08-16T03:04:49.527Z,384
2022-08-16T03:05:07.002Z,395
2022-08-16T03:06:38.918Z,372
2022-08-16T03:07:07.428Z,380
2022-08-16T03:08:07.390Z,374
2022-08-16T03:09:10.694Z,370
2022-08-16T03:10:07.668Z,374
2022-08-16T03:11:16.693Z,375
2022-08-16T03:12:07.184Z,373
2022-08-16T03:14:07.623Z,367
2022-08-16T03:15:06.959Z,375
2022-08-16T03:16:07.565Z,376
2022-08-16T03:17:06.054Z,374
2022-08-16T03:18:12.628Z,372
2022-08-16T03:19:07.632Z,364
2022-08-16T03:20:06.857Z,379
2022-08-16T03:21:09.998Z,353
2022-08-16T03:22:07.134Z,359
2022-08-16T03:23:07.071Z,370
2022-08-16T03:24:29.106Z,386
2022-08-16T03:25:07.343Z,382
2022-08-16T03:26:07.084Z,373
2022-08-16T03:27:07.776Z,366
2022-08-16T03:28:07.604Z,358
2022-08-16T03:29:07.119Z,356
2022-08-16T03:30:16.611Z,368
2022-08-16T03:31:07.040Z,374
2022-08-16T03:32:07.019Z,366
2022-08-16T03:33:08.104Z,355
2022-08-16T03:34:07.570Z,361
2022-08-16T03:35:07.176Z,395
2022-08-16T03:36:30.050Z,347
2022-08-16T03:37:06.743Z,356
2022-08-16T03:38:32.885Z,350
2022-08-16T03:39:14.954Z,370
2022-08-16T03:41:24.255Z,374
2022-08-16T03:42:07.484Z,372
2022-08-16T03:43:20.459Z,374
2022-08-16T03:45:07.495Z,370
2022-08-16T03:46:06.988Z,368
2022-08-16T03:47:10.081Z,382
2022-08-16T03:48:07.317Z,381
2022-08-16T03:49:07.027Z,373
2022-08-16T03:50:26.261Z,394
2022-08-16T03:51:06.932Z,374
2022-08-16T03:52:06.850Z,379
2022-08-16T03:53:07.210Z,365
2022-08-16T03:54:12.406Z,369
2022-08-16T03:55:14.705Z,375
2022-08-16T03:56:06.812Z,371
2022-08-16T03:57:16.458Z,366
2022-08-16T03:58:07.240Z,369
2022-08-16T03:59:06.999Z,375
2022-08-16T04:00:07.679Z,371
2022-08-16T04:01:07.438Z,364
2022-08-16T04:02:19.087Z,379
2022-08-16T04:03:08.612Z,389
2022-08-16T04:04:07.292Z,378
2022-08-16T04:05:07.075Z,367
2022-08-16T04:06:06.952Z,365
2022-08-16T04:07:07.174Z,370
2022-08-16T04:08:23.851Z,376
2022-08-16T04:09:07.364Z,375
2022-08-16T04:10:36.036Z,374
2022-08-16T04:11:07.289Z,366
2022-08-16T04:12:10.928Z,359
2022-08-16T04:13:20.219Z,365
2022-08-16T04:14:31.060Z,368
2022-08-16T04:15:07.932Z,369
2022-08-16T04:16:07.459Z,370
2022-08-16T04:17:06.968Z,378
2022-08-16T04:18:07.265Z,380
2022-08-16T04:19:07.548Z,386
2022-08-16T04:20:07.525Z,371
2022-08-16T04:21:06.934Z,386
2022-08-16T04:22:08.875Z,367
2022-08-16T04:23:26.124Z,365
2022-08-16T04:24:07.920Z,366
2022-08-16T04:25:07.735Z,373
2022-08-16T04:26:06.995Z,382
2022-08-16T04:27:09.089Z,378
2022-08-16T04:28:51.582Z,376
2022-08-16T04:29:15.165Z,371
2022-08-16T04:30:10.950Z,377
2022-08-16T04:31:10.735Z,375
2022-08-16T04:32:07.799Z,378
2022-08-16T04:33:07.158Z,368
2022-08-16T04:34:07.130Z,378
2022-08-16T04:35:12.352Z,383
2022-08-16T04:36:07.199Z,356
2022-08-16T04:37:06.954Z,363
2022-08-16T04:38:10.635Z,367
2022-08-16T04:39:07.779Z,375
2022-08-16T04:40:07.703Z,380
2022-08-16T04:42:11.012Z,374
2022-08-16T04:43:07.796Z,373
2022-08-16T04:44:32.510Z,377
2022-08-16T04:45:07.541Z,371
2022-08-16T04:46:26.545Z,378
2022-08-16T04:48:07.366Z,380
2022-08-16T04:49:07.429Z,387
2022-08-16T04:50:07.796Z,377
2022-08-16T04:51:11.760Z,397
2022-08-16T04:52:07.309Z,384
2022-08-16T04:53:07.730Z,360
2022-08-16T04:55:07.410Z,370
2022-08-16T04:56:11.086Z,380
2022-08-16T04:57:07.416Z,384
2022-08-16T04:58:43.611Z,376
2022-08-16T04:59:07.711Z,375
2022-08-16T05:00:32.058Z,366
2022-08-16T05:01:07.962Z,369
2022-08-16T05:02:42.107Z,371
2022-08-16T05:03:08.367Z,378
2022-08-16T05:04:19.862Z,374
2022-08-16T05:06:09.364Z,383
2022-08-16T05:07:09.983Z,363
2022-08-16T05:08:29.232Z,369
2022-08-16T05:09:07.521Z,371
2022-08-16T05:10:19.899Z,384
2022-08-16T05:11:08.216Z,372
2022-08-16T05:12:07.353Z,378
2022-08-16T05:13:07.091Z,382
2022-08-16T05:14:07.792Z,384
2022-08-16T05:15:07.305Z,387
2022-08-16T05:16:06.976Z,386
2022-08-16T05:17:07.710Z,383
2022-08-16T05:18:07.145Z,380
2022-08-16T05:19:11.542Z,384
2022-08-16T05:20:38.694Z,388
2022-08-16T05:21:11.081Z,375
2022-08-16T05:22:07.279Z,404
2022-08-16T05:23:09.812Z,390
2022-08-16T05:24:07.361Z,383
2022-08-16T05:25:09.167Z,385
2022-08-16T05:27:11.349Z,377
2022-08-16T05:28:07.623Z,375
2022-08-16T05:29:07.547Z,374
2022-08-16T05:30:35.275Z,368
2022-08-16T05:31:07.233Z,373
2022-08-16T05:32:32.524Z,375
2022-08-16T05:33:08.910Z,365
2022-08-16T05:34:19.515Z,359
2022-08-16T05:35:07.544Z,364
2022-08-16T05:37:07.021Z,373
2022-08-16T05:38:32.641Z,378
2022-08-16T05:39:08.875Z,373
2022-08-16T05:40:06.975Z,374
2022-08-16T05:41:07.001Z,375
2022-08-16T05:42:07.145Z,377
2022-08-16T05:43:07.372Z,378
2022-08-16T05:44:23.102Z,373
2022-08-16T05:45:07.469Z,376
2022-08-16T05:46:29.580Z,378
2022-08-16T05:47:07.548Z,372
2022-08-16T05:48:07.480Z,357
2022-08-16T05:49:09.355Z,365
2022-08-16T05:50:07.380Z,367
2022-08-16T05:51:07.668Z,371
2022-08-16T05:52:10.842Z,366
2022-08-16T05:53:07.742Z,361
2022-08-16T05:54:07.603Z,363
2022-08-16T05:55:07.780Z,369
2022-08-16T05:56:07.631Z,362
2022-08-16T05:57:07.685Z,380
2022-08-16T05:58:06.853Z,384
2022-08-16T05:59:07.529Z,383
2022-08-16T06:00:09.297Z,390
2022-08-16T06:01:07.322Z,400
2022-08-16T06:02:07.619Z,393
2022-08-16T06:03:07.116Z,412
2022-08-16T06:04:12.748Z,415
2022-08-16T06:05:07.622Z,406
2022-08-16T06:06:08.509Z,400
2022-08-16T06:07:09.166Z,397
2022-08-16T06:08:07.135Z,390
2022-08-16T06:09:07.666Z,391
2022-08-16T06:11:11.018Z,384
2022-08-16T06:12:07.484Z,382
2022-08-16T06:13:07.301Z,380
2022-08-16T06:14:07.526Z,387
2022-08-16T06:15:09.638Z,391
2022-08-16T06:16:07.622Z,392
2022-08-16T06:17:07.467Z,385
2022-08-16T06:18:07.190Z,380
2022-08-16T06:19:07.273Z,378
2022-08-16T06:20:07.511Z,396
2022-08-16T06:21:07.171Z,377
2022-08-16T06:22:07.686Z,395
2022-08-16T06:23:16.785Z,389
2022-08-16T06:24:55.235Z,380
2022-08-16T06:25:06.934Z,381
2022-08-16T06:26:07.947Z,386
2022-08-16T06:27:07.533Z,384
2022-08-16T06:28:08.868Z,382
2022-08-16T06:29:07.849Z,374
2022-08-16T06:30:07.282Z,370
2022-08-16T06:31:07.357Z,367
2022-08-16T06:32:07.232Z,360
2022-08-16T06:33:07.571Z,364
2022-08-16T06:34:54.218Z,356
2022-08-16T06:35:07.403Z,395
2022-08-16T06:36:07.077Z,385
2022-08-16T06:37:07.527Z,374
2022-08-16T06:38:07.005Z,373
2022-08-16T06:39:07.649Z,371
2022-08-16T06:41:13.488Z,370
2022-08-16T06:42:07.603Z,378
2022-08-16T06:43:07.345Z,384
2022-08-16T06:44:07.207Z,372
2022-08-16T06:45:07.170Z,369
2022-08-16T06:46:09.791Z,377
2022-08-16T06:47:07.468Z,370
2022-08-16T06:48:07.878Z,357
2022-08-16T06:49:07.625Z,370
2022-08-16T06:50:07.194Z,357
2022-08-16T06:52:07.713Z,367
2022-08-16T06:53:08.902Z,361
2022-08-16T06:54:07.382Z,369
2022-08-16T06:55:07.870Z,370
2022-08-16T06:56:14.435Z,367
2022-08-16T06:57:11.629Z,351
2022-08-16T06:58:08.480Z,345
2022-08-16T06:59:08.876Z,358
2022-08-16T07:00:12.995Z,360
2022-08-16T07:01:09.955Z,361
2022-08-16T07:02:07.814Z,358
2022-08-16T07:03:26.873Z,332
2022-08-16T07:04:12.106Z,372
2022-08-16T07:05:14.956Z,378
2022-08-16T07:06:07.416Z,363
2022-08-16T07:07:09.507Z,349
2022-08-16T07:08:07.273Z,355
2022-08-16T07:09:09.406Z,344
2022-08-16T07:10:08.841Z,343
2022-08-16T07:11:07.779Z,353
2022-08-16T07:12:07.207Z,357
2022-08-16T07:13:12.749Z,360
2022-08-16T07:14:25.363Z,368
2022-08-16T07:15:08.522Z,355
2022-08-16T07:16:07.316Z,362
2022-08-16T07:17:08.036Z,363
2022-08-16T07:18:07.609Z,355
2022-08-16T07:20:35.017Z,358
2022-08-16T07:21:07.303Z,342
2022-08-16T07:22:07.541Z,332
2022-08-16T07:23:13.338Z,347
2022-08-16T07:24:07.263Z,366
2022-08-16T07:25:07.599Z,369
2022-08-16T07:26:06.811Z,359
2022-08-16T07:27:08.364Z,356
2022-08-16T07:28:09.367Z,360
2022-08-16T07:29:07.255Z,352
2022-08-16T07:30:39.342Z,334
2022-08-16T07:31:13.040Z,375
2022-08-16T07:32:07.625Z,353
2022-08-16T07:33:07.441Z,346
2022-08-16T07:34:10.187Z,356
2022-08-16T07:35:07.690Z,359
2022-08-16T07:36:07.261Z,358
2022-08-16T07:37:07.504Z,345
2022-08-16T07:38:07.006Z,340
2022-08-16T07:39:07.485Z,329
2022-08-16T07:40:11.301Z,330
2022-08-16T07:41:09.557Z,341
2022-08-16T07:42:07.565Z,351
2022-08-16T07:43:07.594Z,356
2022-08-16T07:44:16.216Z,355
2022-08-16T07:45:10.392Z,347
2022-08-16T07:46:07.058Z,342
2022-08-16T07:47:07.297Z,350
2022-08-16T07:48:11.162Z,346
2022-08-16T07:49:11.325Z,355
2022-08-16T07:50:07.819Z,356
2022-08-16T07:51:09.244Z,354
2022-08-16T07:52:20.212Z,359
2022-08-16T07:53:06.988Z,351
2022-08-16T07:54:09.322Z,356
2022-08-16T07:55:07.637Z,365
2022-08-16T07:56:07.753Z,353
2022-08-16T07:57:07.143Z,356
2022-08-16T07:58:07.081Z,344
2022-08-16T07:59:07.155Z,347
2022-08-16T08:00:07.625Z,344
2022-08-16T08:01:10.525Z,352
2022-08-16T08:02:12.011Z,340
2022-08-16T08:03:07.499Z,325
2022-08-16T08:04:07.172Z,334
2022-08-16T08:05:07.310Z,350
2022-08-16T08:06:06.773Z,354
2022-08-16T08:07:08.926Z,355
2022-08-16T08:08:11.439Z,357
2022-08-16T08:09:07.453Z,356
2022-08-16T08:10:10.913Z,355
2022-08-16T08:11:09.271Z,347
2022-08-16T08:12:07.220Z,339
2022-08-16T08:13:07.696Z,338
2022-08-16T08:14:07.360Z,342
2022-08-16T08:15:09.518Z,346
2022-08-16T08:16:07.215Z,352
2022-08-16T08:17:08.642Z,355
2022-08-16T08:18:30.201Z,348
2022-08-16T08:19:07.005Z,360
2022-08-16T08:20:07.668Z,357
2022-08-16T08:21:07.406Z,343
2022-08-16T08:22:07.268Z,358
2022-08-16T08:23:07.619Z,374
2022-08-16T08:24:09.453Z,345
2022-08-16T08:25:07.251Z,349
2022-08-16T08:26:09.630Z,359
2022-08-16T08:27:07.585Z,351
2022-08-16T08:28:08.046Z,356
2022-08-16T08:29:08.511Z,354
2022-08-16T08:30:48.863Z,341
2022-08-16T08:31:07.779Z,334
2022-08-16T08:32:49.079Z,330
2022-08-16T08:33:08.952Z,347
2022-08-16T08:34:07.466Z,346
2022-08-16T08:36:06.975Z,328
2022-08-16T08:37:07.093Z,375
2022-08-16T08:38:07.147Z,372
2022-08-16T08:39:13.245Z,362
2022-08-16T08:40:07.889Z,361
2022-08-16T08:41:07.094Z,355
2022-08-16T08:42:07.483Z,353
2022-08-16T08:43:11.751Z,345
2022-08-16T08:44:29.449Z,353
2022-08-16T08:45:07.854Z,365
2022-08-16T08:46:17.754Z,362
2022-08-16T08:47:10.947Z,366
2022-08-16T08:48:07.522Z,352
2022-08-16T08:49:07.292Z,392
2022-08-16T08:50:07.677Z,364
2022-08-16T08:51:09.564Z,363
2022-08-16T08:52:08.095Z,353
2022-08-16T08:53:07.363Z,346
2022-08-16T08:54:09.163Z,364
2022-08-16T08:55:10.248Z,359
2022-08-16T08:56:23.433Z,360
2022-08-16T08:57:07.176Z,364
2022-08-16T08:58:06.966Z,366
2022-08-16T08:59:13.282Z,361
2022-08-16T09:00:13.438Z,353
2022-08-16T09:01:07.437Z,357
2022-08-16T09:02:07.397Z,387
2022-08-16T09:03:07.990Z,337
2022-08-16T09:04:07.241Z,330
2022-08-16T09:05:15.412Z,347
2022-08-16T09:07:07.190Z,358
2022-08-16T09:08:07.134Z,367
2022-08-16T09:09:07.440Z,373
2022-08-16T09:10:20.652Z,367
2022-08-16T09:11:07.465Z,357
2022-08-16T09:12:07.618Z,359
2022-08-16T09:13:08.004Z,350
2022-08-16T09:14:07.253Z,369
2022-08-16T09:15:07.739Z,376
2022-08-16T09:16:10.213Z,370
2022-08-16T09:17:11.381Z,380
2022-08-16T09:18:25.129Z,369
2022-08-16T09:20:07.767Z,373
2022-08-16T09:21:06.903Z,367
2022-08-16T09:23:07.306Z,360
2022-08-16T09:24:10.106Z,350
2022-08-16T09:25:10.073Z,361
2022-08-16T09:26:45.548Z,365
2022-08-16T09:27:07.429Z,371
2022-08-16T09:28:09.231Z,376
2022-08-16T09:29:15.579Z,381
2022-08-16T09:30:33.711Z,373
2022-08-16T09:31:07.184Z,361
2022-08-16T09:32:07.956Z,347
2022-08-16T09:33:07.701Z,356
2022-08-16T09:34:07.577Z,355
2022-08-16T09:35:07.115Z,351
2022-08-16T09:36:07.104Z,354
2022-08-16T09:37:17.525Z,357
2022-08-16T09:38:09.726Z,364
2022-08-16T09:39:07.359Z,359
2022-08-16T09:40:31.657Z,326
2022-08-16T09:41:14.619Z,347
2022-08-16T09:42:07.307Z,353
2022-08-16T09:43:07.618Z,358
2022-08-16T09:45:11.325Z,349
2022-08-16T09:45:11.655Z,353
2022-08-16T09:46:45.544Z,344
2022-08-16T09:47:10.270Z,363
2022-08-16T09:49:08.490Z,359
2022-08-16T09:50:11.784Z,354
2022-08-16T09:51:06.886Z,352
2022-08-16T09:52:07.230Z,398
2022-08-16T09:53:07.325Z,384
2022-08-16T09:54:09.632Z,376
2022-08-16T09:55:07.624Z,372
2022-08-16T09:56:11.359Z,365
2022-08-16T09:57:07.546Z,380
2022-08-16T09:58:07.272Z,384
2022-08-16T09:59:08.069Z,374
2022-08-16T10:00:42.514Z,368
2022-08-16T10:01:08.399Z,376
2022-08-16T10:02:26.439Z,364
2022-08-16T10:03:10.045Z,369
2022-08-16T10:04:29.821Z,374
2022-08-16T10:05:07.828Z,362
2022-08-16T10:06:07.802Z,347
2022-08-16T10:07:15.303Z,361
2022-08-16T10:08:26.550Z,356
2022-08-16T10:09:08.297Z,354
2022-08-16T10:10:11.567Z,359
2022-08-16T10:11:07.091Z,357
2022-08-16T10:12:11.357Z,349
2022-08-16T10:13:06.840Z,358
2022-08-16T10:14:07.490Z,361
2022-08-16T10:15:07.546Z,367
2022-08-16T10:16:07.214Z,356
2022-08-16T10:17:07.177Z,350
2022-08-16T10:18:56.786Z,348
2022-08-16T10:19:09.042Z,343
2022-08-16T10:20:07.353Z,350
2022-08-16T10:21:07.288Z,358
2022-08-16T10:22:07.379Z,376
2022-08-16T10:23:08.356Z,373
2022-08-16T10:24:07.263Z,376
2022-08-16T10:25:07.474Z,372
2022-08-16T10:27:18.066Z,370
2022-08-16T10:27:26.589Z,363
2022-08-16T10:28:27.649Z,360
2022-08-16T10:29:07.429Z,365
2022-08-16T10:30:25.873Z,361
2022-08-16T10:31:07.053Z,370
2022-08-16T10:32:07.382Z,363
2022-08-16T10:33:07.133Z,358
2022-08-16T10:34:30.664Z,354
2022-08-16T10:35:07.442Z,356
2022-08-16T10:36:07.517Z,353
2022-08-16T10:37:08.151Z,350
2022-08-16T10:38:09.635Z,342
2022-08-16T10:39:08.496Z,336
2022-08-16T10:40:28.455Z,321
2022-08-16T10:41:07.398Z,329
2022-08-16T10:42:07.444Z,345
2022-08-16T10:43:08.384Z,350
2022-08-16T10:44:09.486Z,341
2022-08-16T10:45:07.615Z,340
2022-08-16T10:46:40.028Z,338
2022-08-16T10:47:07.039Z,335
2022-08-16T10:48:27.881Z,336
2022-08-16T10:49:07.594Z,343
2022-08-16T10:50:07.602Z,348
2022-08-16T10:51:07.274Z,342
2022-08-16T10:52:19.124Z,339
2022-08-16T10:53:07.775Z,343
2022-08-16T10:54:07.288Z,350
2022-08-16T10:55:40.384Z,330
2022-08-16T10:56:52.699Z,333
2022-08-16T10:57:06.643Z,332
2022-08-16T10:58:11.693Z,344
2022-08-16T10:59:44.945Z,332
2022-08-16T11:00:21.414Z,318
2022-08-16T11:01:43.639Z,327
2022-08-16T11:02:57.607Z,346
2022-08-16T11:03:42.954Z,339
2022-08-16T11:05:04.781Z,346
2022-08-16T11:05:09.547Z,345
2022-08-16T11:06:12.020Z,348
2022-08-16T11:07:07.884Z,342
2022-08-16T11:08:07.728Z,345
2022-08-16T11:09:25.222Z,342
2022-08-16T11:10:59.135Z,346
2022-08-16T11:11:12.843Z,341
2022-08-16T11:14:11.691Z,345
2022-08-16T11:15:17.196Z,348
2022-08-16T11:16:26.875Z,360
2022-08-16T11:17:10.896Z,358
2022-08-16T11:19:03.839Z,349
2022-08-16T11:19:12.469Z,344
2022-08-16T11:21:07.260Z,356
2022-08-16T11:22:38.968Z,366
2022-08-16T11:23:07.093Z,364
2022-08-16T11:24:39.734Z,346
2022-08-16T11:25:59.607Z,337
2022-08-16T11:26:16.389Z,343
2022-08-16T11:27:26.949Z,342
2022-08-16T11:28:07.325Z,332
2022-08-16T11:29:14.949Z,331
2022-08-16T11:30:08.986Z,322
2022-08-16T11:31:06.870Z,317
2022-08-16T11:32:07.690Z,327
2022-08-16T11:33:07.150Z,334
2022-08-16T11:34:08.099Z,333
2022-08-16T11:35:11.223Z,336
2022-08-16T11:36:25.003Z,337
2022-08-16T11:37:07.747Z,374
2022-08-16T11:38:47.038Z,360
2022-08-16T11:39:07.339Z,349
2022-08-16T11:40:06.959Z,340
2022-08-16T11:41:07.582Z,346
2022-08-16T11:42:23.216Z,362
2022-08-16T11:43:07.651Z,359
2022-08-16T11:44:07.120Z,352
2022-08-16T11:45:07.073Z,346
2022-08-16T11:46:42.949Z,352
2022-08-16T11:47:07.565Z,346
2022-08-16T11:48:07.222Z,349
2022-08-16T11:49:12.737Z,341
2022-08-16T11:51:07.086Z,343
2022-08-16T11:52:07.111Z,341
2022-08-16T11:53:08.359Z,339
2022-08-16T11:54:08.923Z,355
2022-08-16T11:55:07.342Z,350
2022-08-16T11:56:07.438Z,354
2022-08-16T11:57:08.917Z,358
2022-08-16T11:58:07.200Z,350
2022-08-16T11:59:07.200Z,343
2022-08-16T12:00:08.277Z,340
2022-08-16T12:01:06.917Z,356
2022-08-16T12:02:31.658Z,358
2022-08-16T12:03:07.795Z,349
2022-08-16T12:04:07.071Z,338
2022-08-16T12:05:07.377Z,333
2022-08-16T12:06:07.657Z,336
2022-08-16T12:07:07.429Z,342
2022-08-16T12:08:07.009Z,340
2022-08-16T12:09:07.511Z,308
2022-08-16T12:10:07.028Z,377
2022-08-16T12:11:07.566Z,359
2022-08-16T12:12:06.969Z,352
2022-08-16T12:13:07.604Z,353
2022-08-16T12:14:07.530Z,362
2022-08-16T12:15:07.292Z,356
2022-08-16T12:16:07.208Z,348
2022-08-16T12:17:08.278Z,355
2022-08-16T12:18:07.486Z,363
2022-08-16T12:19:10.560Z,359
2022-08-16T12:20:07.625Z,340
2022-08-16T12:21:07.440Z,337
2022-08-16T12:22:19.108Z,340
2022-08-16T12:23:07.162Z,335
2022-08-16T12:24:07.559Z,326
2022-08-16T12:25:06.974Z,335
2022-08-16T12:26:10.355Z,334
2022-08-16T12:27:08.316Z,341
2022-08-16T12:28:07.646Z,345
2022-08-16T12:29:07.283Z,340
2022-08-16T12:30:07.253Z,336
2022-08-16T12:31:07.071Z,348
2022-08-16T12:32:37.396Z,355
2022-08-16T12:33:07.601Z,350
2022-08-16T12:34:07.612Z,341
2022-08-16T12:35:07.554Z,351
2022-08-16T12:36:09.930Z,345
2022-08-16T12:37:11.657Z,355
2022-08-16T12:38:37.957Z,358
2022-08-16T12:39:07.285Z,374
2022-08-16T12:40:07.068Z,379
2022-08-16T12:41:08.152Z,353
2022-08-16T12:42:07.448Z,342
2022-08-16T12:43:07.382Z,335
2022-08-16T12:44:07.443Z,336
2022-08-16T12:45:08.201Z,338
2022-08-16T12:46:07.406Z,347
2022-08-16T12:47:07.320Z,356
2022-08-16T12:48:32.712Z,370
2022-08-16T12:49:06.968Z,367
2022-08-16T12:50:07.266Z,366
2022-08-16T12:51:13.511Z,371
2022-08-16T12:52:07.119Z,372
2022-08-16T12:53:06.887Z,343
2022-08-16T12:54:06.960Z,345
2022-08-16T12:55:07.367Z,355
2022-08-16T12:56:07.231Z,350
2022-08-16T12:57:07.202Z,348
2022-08-16T12:59:06.779Z,340
2022-08-16T13:01:07.579Z,331
2022-08-16T13:02:07.529Z,337
2022-08-16T13:03:07.886Z,347
2022-08-16T13:04:19.643Z,338
2022-08-16T13:05:08.115Z,335
2022-08-16T13:06:07.042Z,337
2022-08-16T13:07:08.662Z,347
2022-08-16T13:09:07.553Z,335
2022-08-16T13:10:07.842Z,341
2022-08-16T13:11:08.016Z,348
2022-08-16T13:12:07.713Z,351
2022-08-16T13:13:08.714Z,343
2022-08-16T13:14:07.151Z,333
2022-08-16T13:15:07.426Z,330
2022-08-16T13:16:15.285Z,344
2022-08-16T13:18:23.909Z,336
2022-08-16T13:19:07.377Z,337
2022-08-16T13:20:08.983Z,351
2022-08-16T13:21:07.707Z,345
2022-08-16T13:22:06.976Z,339
2022-08-16T13:23:08.034Z,353
2022-08-16T13:24:07.369Z,358
2022-08-16T13:25:07.264Z,341
2022-08-16T13:26:07.884Z,332
2022-08-16T13:27:07.162Z,334
2022-08-16T13:28:07.547Z,348
2022-08-16T13:29:07.035Z,346
2022-08-16T13:30:21.630Z,352
2022-08-16T13:31:08.024Z,357
2022-08-16T13:32:08.289Z,362
2022-08-16T13:33:11.348Z,326
2022-08-16T13:34:09.371Z,362
2022-08-16T13:35:07.553Z,350
2022-08-16T13:36:07.603Z,356
2022-08-16T13:37:07.464Z,346
2022-08-16T13:38:07.875Z,338
2022-08-16T13:39:07.668Z,340
2022-08-16T13:40:07.276Z,349
2022-08-16T13:42:07.406Z,337
2022-08-16T13:43:07.524Z,349
2022-08-16T13:44:09.432Z,361
2022-08-16T13:45:07.364Z,332
2022-08-16T13:46:07.570Z,327
2022-08-16T13:47:07.203Z,330
2022-08-16T13:48:07.277Z,336
2022-08-16T13:49:06.932Z,335
2022-08-16T13:50:07.198Z,325
2022-08-16T13:51:07.429Z,328
2022-08-16T13:52:07.155Z,333
2022-08-16T13:53:07.366Z,340
2022-08-16T13:54:07.188Z,347
2022-08-16T13:55:17.761Z,345
2022-08-16T13:56:07.537Z,337
2022-08-16T13:57:07.008Z,332
2022-08-16T13:58:36.778Z,350
2022-08-16T13:59:14.262Z,348
2022-08-16T14:00:08.065Z,358
2022-08-16T14:01:09.955Z,366
2022-08-16T14:02:08.253Z,361
2022-08-16T14:03:07.204Z,360
2022-08-16T14:04:07.328Z,373
2022-08-16T14:05:07.463Z,360
2022-08-16T14:06:07.979Z,359
2022-08-16T14:07:07.681Z,365
2022-08-16T14:08:07.232Z,343
2022-08-16T14:09:07.504Z,325
2022-08-16T14:10:07.681Z,338
2022-08-16T14:11:07.131Z,336
2022-08-16T14:12:17.537Z,352
2022-08-16T14:13:08.206Z,340
2022-08-16T14:14:07.256Z,341
2022-08-16T14:15:08.172Z,369
2022-08-16T14:16:12.294Z,325
2022-08-16T14:17:09.877Z,328
2022-08-16T14:18:17.522Z,348
2022-08-16T14:19:07.165Z,340
2022-08-16T14:20:07.913Z,345
2022-08-16T14:21:07.527Z,342
2022-08-16T14:22:14.709Z,338
2022-08-16T14:23:06.829Z,340
2022-08-16T14:24:07.804Z,347